sensor_id;sensor_type;location;lat;lon;timestamp;temperature;humidity
15617;DHT22;7908;51.688;7.130;2023-07-20T00:01:18;16.10;99.90
15617;DHT22;7908;51.688;7.130;2023-07-20T00:03:47;16.00;99.90
15617;DHT22;7908;51.688;7.130;2023-07-20T00:06:22;16.10;99.90
15617;DHT22;7908;51.688;7.130;2023-07-20T00:08:54;16.10;99.90
15617;DHT22;7908;51.688;7.130;2023-07-20T00:11:27;16.10;99.90
15617;DHT22;7908;51.688;7.130;2023-07-20T00:13:56;16.10;99.90
15617;DHT22;7908;51.688;7.130;2023-07-20T00:16:25;16.10;99.90
15617;DHT22;7908;51.688;7.130;2023-07-20T00:18:55;16.10;99.90
15617;DHT22;7908;51.688;7.130;2023-07-20T00:21:25;16.10;99.90
15617;DHT22;7908;51.688;7.130;2023-07-20T00:23:55;16.10;99.90
15617;DHT22;7908;51.688;7.130;2023-07-20T00:26:24;16.00;99.90
15617;DHT22;7908;51.688;7.130;2023-07-20T00:28:53;16.10;99.90
15617;DHT22;7908;51.688;7.130;2023-07-20T00:31:23;16.10;99.90
15617;DHT22;7908;51.688;7.130;2023-07-20T00:33:52;16.10;99.90
15617;DHT22;7908;51.688;7.130;2023-07-20T00:36:21;16.10;99.90
15617;DHT22;7908;51.688;7.130;2023-07-20T00:38:51;16.20;99.90
15617;DHT22;7908;51.688;7.130;2023-07-20T00:41:21;16.20;99.90
15617;DHT22;7908;51.688;7.130;2023-07-20T00:43:50;16.20;99.90
15617;DHT22;7908;51.688;7.130;2023-07-20T00:46:23;16.30;99.90
15617;DHT22;7908;51.688;7.130;2023-07-20T00:48:53;16.20;99.90
15617;DHT22;7908;51.688;7.130;2023-07-20T00:51:23;16.20;99.90
15617;DHT22;7908;51.688;7.130;2023-07-20T00:53:53;16.20;99.90
15617;DHT22;7908;51.688;7.130;2023-07-20T00:56:23;16.10;99.90
15617;DHT22;7908;51.688;7.130;2023-07-20T00:58:53;16.10;99.90
15617;DHT22;7908;51.688;7.130;2023-07-20T01:01:22;16.00;99.90
15617;DHT22;7908;51.688;7.130;2023-07-20T01:03:51;16.00;99.90
15617;DHT22;7908;51.688;7.130;2023-07-20T01:06:29;16.00;99.90
15617;DHT22;7908;51.688;7.130;2023-07-20T01:09:05;16.10;99.90
15617;DHT22;7908;51.688;7.130;2023-07-20T01:11:46;16.10;99.90
15617;DHT22;7908;51.688;7.130;2023-07-20T01:14:18;16.00;99.90
15617;DHT22;7908;51.688;7.130;2023-07-20T01:16:47;16.00;99.90
15617;DHT22;7908;51.688;7.130;2023-07-20T01:19:17;16.00;99.90
15617;DHT22;7908;51.688;7.130;2023-07-20T01:21:50;16.00;99.90
15617;DHT22;7908;51.688;7.130;2023-07-20T01:24:44;16.00;99.90
15617;DHT22;7908;51.688;7.130;2023-07-20T01:27:45;16.00;99.90
15617;DHT22;7908;51.688;7.130;2023-07-20T01:30:55;16.00;99.90
15617;DHT22;7908;51.688;7.130;2023-07-20T01:33:26;16.00;99.90
15617;DHT22;7908;51.688;7.130;2023-07-20T01:35:58;16.00;99.90
15617;DHT22;7908;51.688;7.130;2023-07-20T01:38:28;16.00;99.90
15617;DHT22;7908;51.688;7.130;2023-07-20T01:40:57;16.00;99.90
15617;DHT22;7908;51.688;7.130;2023-07-20T01:43:26;15.90;99.90
15617;DHT22;7908;51.688;7.130;2023-07-20T01:45:55;16.00;99.90
15617;DHT22;7908;51.688;7.130;2023-07-20T01:48:25;16.00;99.90
15617;DHT22;7908;51.688;7.130;2023-07-20T01:50:54;16.00;99.90
15617;DHT22;7908;51.688;7.130;2023-07-20T01:53:23;16.10;99.90
15617;DHT22;7908;51.688;7.130;2023-07-20T01:55:53;16.00;99.90
15617;DHT22;7908;51.688;7.130;2023-07-20T01:58:22;15.90;99.90
15617;DHT22;7908;51.688;7.130;2023-07-20T02:00:52;15.80;99.90
15617;DHT22;7908;51.688;7.130;2023-07-20T02:03:22;15.80;99.90
15617;DHT22;7908;51.688;7.130;2023-07-20T02:05:54;15.80;99.90
15617;DHT22;7908;51.688;7.130;2023-07-20T02:08:24;15.80;99.90
15617;DHT22;7908;51.688;7.130;2023-07-20T02:10:52;15.70;99.90
15617;DHT22;7908;51.688;7.130;2023-07-20T02:13:21;15.70;99.90
15617;DHT22;7908;51.688;7.130;2023-07-20T02:15:50;15.70;99.90
15617;DHT22;7908;51.688;7.130;2023-07-20T02:18:18;15.70;99.90
15617;DHT22;7908;51.688;7.130;2023-07-20T02:20:47;15.70;99.90
15617;DHT22;7908;51.688;7.130;2023-07-20T02:23:17;15.70;99.90
15617;DHT22;7908;51.688;7.130;2023-07-20T02:25:46;15.70;99.90
15617;DHT22;7908;51.688;7.130;2023-07-20T02:28:15;15.70;99.90
15617;DHT22;7908;51.688;7.130;2023-07-20T02:30:44;15.70;99.90
15617;DHT22;7908;51.688;7.130;2023-07-20T02:33:13;15.70;99.90
15617;DHT22;7908;51.688;7.130;2023-07-20T02:35:42;15.70;99.90
15617;DHT22;7908;51.688;7.130;2023-07-20T02:38:10;15.70;99.90
15617;DHT22;7908;51.688;7.130;2023-07-20T02:40:41;15.70;99.90
15617;DHT22;7908;51.688;7.130;2023-07-20T02:43:10;15.80;99.90
15617;DHT22;7908;51.688;7.130;2023-07-20T02:45:40;15.70;99.90
15617;DHT22;7908;51.688;7.130;2023-07-20T02:48:10;15.80;99.90
15617;DHT22;7908;51.688;7.130;2023-07-20T02:50:38;15.80;99.90
15617;DHT22;7908;51.688;7.130;2023-07-20T02:53:07;15.80;99.90
15617;DHT22;7908;51.688;7.130;2023-07-20T02:55:40;15.80;99.90
15617;DHT22;7908;51.688;7.130;2023-07-20T02:58:09;15.80;99.90
15617;DHT22;7908;51.688;7.130;2023-07-20T03:00:38;15.80;99.90
15617;DHT22;7908;51.688;7.130;2023-07-20T03:03:06;15.80;99.90
15617;DHT22;7908;51.688;7.130;2023-07-20T03:05:40;15.80;99.90
15617;DHT22;7908;51.688;7.130;2023-07-20T03:08:08;15.70;99.90
15617;DHT22;7908;51.688;7.130;2023-07-20T03:10:42;15.80;99.90
15617;DHT22;7908;51.688;7.130;2023-07-20T03:13:10;15.80;99.90
15617;DHT22;7908;51.688;7.130;2023-07-20T03:15:40;15.80;99.90
15617;DHT22;7908;51.688;7.130;2023-07-20T03:18:09;15.80;99.90
15617;DHT22;7908;51.688;7.130;2023-07-20T03:20:38;15.80;99.90
15617;DHT22;7908;51.688;7.130;2023-07-20T03:23:06;15.80;99.90
15617;DHT22;7908;51.688;7.130;2023-07-20T03:25:35;15.80;99.90
15617;DHT22;7908;51.688;7.130;2023-07-20T03:28:06;15.70;99.90
15617;DHT22;7908;51.688;7.130;2023-07-20T03:30:35;15.80;99.90
15617;DHT22;7908;51.688;7.130;2023-07-20T03:33:03;15.80;99.90
15617;DHT22;7908;51.688;7.130;2023-07-20T03:35:32;15.70;99.90
15617;DHT22;7908;51.688;7.130;2023-07-20T03:38:01;15.70;99.90
15617;DHT22;7908;51.688;7.130;2023-07-20T03:40:30;15.70;99.90
15617;DHT22;7908;51.688;7.130;2023-07-20T03:42:58;15.70;99.90
15617;DHT22;7908;51.688;7.130;2023-07-20T03:45:28;15.70;99.90
15617;DHT22;7908;51.688;7.130;2023-07-20T03:47:57;15.70;99.90
15617;DHT22;7908;51.688;7.130;2023-07-20T03:50:26;15.70;99.90
15617;DHT22;7908;51.688;7.130;2023-07-20T03:52:55;15.70;99.90
15617;DHT22;7908;51.688;7.130;2023-07-20T03:55:23;15.70;99.90
15617;DHT22;7908;51.688;7.130;2023-07-20T03:57:52;15.70;99.90
15617;DHT22;7908;51.688;7.130;2023-07-20T04:00:21;15.70;99.90
15617;DHT22;7908;51.688;7.130;2023-07-20T04:02:51;15.70;99.90
15617;DHT22;7908;51.688;7.130;2023-07-20T04:05:21;15.60;99.90
15617;DHT22;7908;51.688;7.130;2023-07-20T04:07:50;15.50;99.90
15617;DHT22;7908;51.688;7.130;2023-07-20T04:10:19;15.50;99.90
15617;DHT22;7908;51.688;7.130;2023-07-20T04:12:47;15.60;99.90
15617;DHT22;7908;51.688;7.130;2023-07-20T04:15:16;15.50;99.90
15617;DHT22;7908;51.688;7.130;2023-07-20T04:17:45;15.50;99.90
15617;DHT22;7908;51.688;7.130;2023-07-20T04:20:15;15.50;99.90
15617;DHT22;7908;51.688;7.130;2023-07-20T04:22:46;15.50;99.90
15617;DHT22;7908;51.688;7.130;2023-07-20T04:25:15;15.50;99.90
15617;DHT22;7908;51.688;7.130;2023-07-20T04:27:44;15.50;99.90
15617;DHT22;7908;51.688;7.130;2023-07-20T04:30:13;15.50;99.90
15617;DHT22;7908;51.688;7.130;2023-07-20T04:32:42;15.50;99.90
15617;DHT22;7908;51.688;7.130;2023-07-20T04:35:25;15.50;99.90
15617;DHT22;7908;51.688;7.130;2023-07-20T04:38:06;15.40;99.90
15617;DHT22;7908;51.688;7.130;2023-07-20T04:40:35;15.40;99.90
15617;DHT22;7908;51.688;7.130;2023-07-20T04:43:04;15.40;99.90
15617;DHT22;7908;51.688;7.130;2023-07-20T04:45:33;15.40;99.90
15617;DHT22;7908;51.688;7.130;2023-07-20T04:48:03;15.40;99.90
15617;DHT22;7908;51.688;7.130;2023-07-20T04:50:33;15.40;99.90
15617;DHT22;7908;51.688;7.130;2023-07-20T04:53:03;15.30;99.90
15617;DHT22;7908;51.688;7.130;2023-07-20T04:55:32;15.30;99.90
15617;DHT22;7908;51.688;7.130;2023-07-20T04:58:04;15.50;99.90
15617;DHT22;7908;51.688;7.130;2023-07-20T05:00:38;15.50;99.90
15617;DHT22;7908;51.688;7.130;2023-07-20T05:03:07;15.50;99.90
15617;DHT22;7908;51.688;7.130;2023-07-20T05:05:38;15.60;99.90
15617;DHT22;7908;51.688;7.130;2023-07-20T05:08:07;15.60;99.90
15617;DHT22;7908;51.688;7.130;2023-07-20T05:10:36;15.60;99.90
15617;DHT22;7908;51.688;7.130;2023-07-20T05:13:05;15.70;99.90
15617;DHT22;7908;51.688;7.130;2023-07-20T05:15:33;15.60;99.90
15617;DHT22;7908;51.688;7.130;2023-07-20T05:18:02;15.60;99.90
15617;DHT22;7908;51.688;7.130;2023-07-20T05:20:31;15.60;99.90
15617;DHT22;7908;51.688;7.130;2023-07-20T05:23:02;15.60;99.90
15617;DHT22;7908;51.688;7.130;2023-07-20T05:25:31;15.50;99.90
15617;DHT22;7908;51.688;7.130;2023-07-20T05:28:00;15.50;99.90
15617;DHT22;7908;51.688;7.130;2023-07-20T05:30:29;15.40;99.90
15617;DHT22;7908;51.688;7.130;2023-07-20T05:32:58;15.50;99.90
15617;DHT22;7908;51.688;7.130;2023-07-20T05:35:27;15.50;99.90
15617;DHT22;7908;51.688;7.130;2023-07-20T05:37:55;15.50;99.90
15617;DHT22;7908;51.688;7.130;2023-07-20T05:40:26;15.60;99.90
15617;DHT22;7908;51.688;7.130;2023-07-20T05:42:55;15.60;99.90
15617;DHT22;7908;51.688;7.130;2023-07-20T05:45:30;15.60;99.90
15617;DHT22;7908;51.688;7.130;2023-07-20T05:47:59;15.60;99.90
15617;DHT22;7908;51.688;7.130;2023-07-20T05:50:29;15.70;99.90
15617;DHT22;7908;51.688;7.130;2023-07-20T05:52:58;15.80;99.90
15617;DHT22;7908;51.688;7.130;2023-07-20T05:55:28;15.80;99.90
15617;DHT22;7908;51.688;7.130;2023-07-20T05:57:58;15.80;99.90
15617;DHT22;7908;51.688;7.130;2023-07-20T06:00:28;15.90;99.90
15617;DHT22;7908;51.688;7.130;2023-07-20T06:02:58;15.90;99.90
15617;DHT22;7908;51.688;7.130;2023-07-20T06:05:27;15.90;99.90
15617;DHT22;7908;51.688;7.130;2023-07-20T06:07:55;15.80;99.90
15617;DHT22;7908;51.688;7.130;2023-07-20T06:10:25;15.80;99.90
15617;DHT22;7908;51.688;7.130;2023-07-20T06:12:55;15.90;99.90
15617;DHT22;7908;51.688;7.130;2023-07-20T06:15:25;15.90;99.90
15617;DHT22;7908;51.688;7.130;2023-07-20T06:17:55;16.10;99.90
15617;DHT22;7908;51.688;7.130;2023-07-20T06:20:25;16.20;99.90
15617;DHT22;7908;51.688;7.130;2023-07-20T06:22:54;16.20;99.90
15617;DHT22;7908;51.688;7.130;2023-07-20T06:25:23;16.20;99.90
15617;DHT22;7908;51.688;7.130;2023-07-20T06:27:52;16.10;99.90
15617;DHT22;7908;51.688;7.130;2023-07-20T06:30:24;16.20;99.90
15617;DHT22;7908;51.688;7.130;2023-07-20T06:32:52;16.20;99.90
15617;DHT22;7908;51.688;7.130;2023-07-20T06:35:21;16.20;99.90
15617;DHT22;7908;51.688;7.130;2023-07-20T06:37:50;16.10;99.90
15617;DHT22;7908;51.688;7.130;2023-07-20T06:40:19;16.10;99.90
15617;DHT22;7908;51.688;7.130;2023-07-20T06:42:51;16.10;99.90
15617;DHT22;7908;51.688;7.130;2023-07-20T06:45:25;16.20;99.90
15617;DHT22;7908;51.688;7.130;2023-07-20T06:47:54;16.30;99.90
15617;DHT22;7908;51.688;7.130;2023-07-20T06:50:24;16.40;99.90
15617;DHT22;7908;51.688;7.130;2023-07-20T06:52:54;16.60;99.90
15617;DHT22;7908;51.688;7.130;2023-07-20T06:55:25;16.70;99.90
15617;DHT22;7908;51.688;7.130;2023-07-20T06:57:59;16.80;99.90
15617;DHT22;7908;51.688;7.130;2023-07-20T07:00:30;16.80;99.90
15617;DHT22;7908;51.688;7.130;2023-07-20T07:02:59;16.80;99.90
15617;DHT22;7908;51.688;7.130;2023-07-20T07:05:28;16.90;99.90
15617;DHT22;7908;51.688;7.130;2023-07-20T07:08:03;16.80;99.90
15617;DHT22;7908;51.688;7.130;2023-07-20T07:10:34;16.80;99.90
15617;DHT22;7908;51.688;7.130;2023-07-20T07:13:08;16.90;99.90
15617;DHT22;7908;51.688;7.130;2023-07-20T07:15:42;16.90;99.90
15617;DHT22;7908;51.688;7.130;2023-07-20T07:18:12;17.10;99.90
15617;DHT22;7908;51.688;7.130;2023-07-20T07:20:42;17.30;99.90
15617;DHT22;7908;51.688;7.130;2023-07-20T07:23:18;17.40;99.90
15617;DHT22;7908;51.688;7.130;2023-07-20T07:25:48;17.40;99.90
15617;DHT22;7908;51.688;7.130;2023-07-20T07:28:17;17.40;99.90
15617;DHT22;7908;51.688;7.130;2023-07-20T07:30:51;17.20;99.90
15617;DHT22;7908;51.688;7.130;2023-07-20T07:33:25;17.10;99.90
15617;DHT22;7908;51.688;7.130;2023-07-20T07:35:58;17.00;99.90
15617;DHT22;7908;51.688;7.130;2023-07-20T07:38:31;17.20;99.90
15617;DHT22;7908;51.688;7.130;2023-07-20T07:41:23;17.40;99.90
15617;DHT22;7908;51.688;7.130;2023-07-20T07:43:53;17.70;99.90
15617;DHT22;7908;51.688;7.130;2023-07-20T07:46:30;17.80;99.90
15617;DHT22;7908;51.688;7.130;2023-07-20T07:48:59;17.80;99.90
15617;DHT22;7908;51.688;7.130;2023-07-20T07:51:30;18.00;99.90
15617;DHT22;7908;51.688;7.130;2023-07-20T07:54:01;18.10;99.90
15617;DHT22;7908;51.688;7.130;2023-07-20T07:56:31;17.90;99.90
15617;DHT22;7908;51.688;7.130;2023-07-20T07:59:02;17.70;99.90
15617;DHT22;7908;51.688;7.130;2023-07-20T08:02:00;17.40;99.90
15617;DHT22;7908;51.688;7.130;2023-07-20T08:04:29;17.20;99.90
15617;DHT22;7908;51.688;7.130;2023-07-20T08:06:59;17.10;99.90
15617;DHT22;7908;51.688;7.130;2023-07-20T08:09:31;17.10;99.90
15617;DHT22;7908;51.688;7.130;2023-07-20T08:12:02;17.10;99.90
15617;DHT22;7908;51.688;7.130;2023-07-20T08:14:31;17.20;99.90
15617;DHT22;7908;51.688;7.130;2023-07-20T08:17:06;17.20;99.90
15617;DHT22;7908;51.688;7.130;2023-07-20T08:19:37;17.20;99.90
15617;DHT22;7908;51.688;7.130;2023-07-20T08:22:13;17.30;99.90
15617;DHT22;7908;51.688;7.130;2023-07-20T08:24:45;17.30;99.90
15617;DHT22;7908;51.688;7.130;2023-07-20T08:27:16;17.30;99.90
15617;DHT22;7908;51.688;7.130;2023-07-20T08:29:45;17.40;99.90
15617;DHT22;7908;51.688;7.130;2023-07-20T08:32:18;17.40;99.90
15617;DHT22;7908;51.688;7.130;2023-07-20T08:34:47;17.30;99.90
15617;DHT22;7908;51.688;7.130;2023-07-20T08:37:17;17.30;99.90
15617;DHT22;7908;51.688;7.130;2023-07-20T08:39:52;17.30;99.90
15617;DHT22;7908;51.688;7.130;2023-07-20T08:42:23;17.40;99.90
15617;DHT22;7908;51.688;7.130;2023-07-20T08:44:57;17.30;99.90
15617;DHT22;7908;51.688;7.130;2023-07-20T08:47:29;17.40;99.90
15617;DHT22;7908;51.688;7.130;2023-07-20T08:50:02;17.30;99.90
15617;DHT22;7908;51.688;7.130;2023-07-20T08:52:38;17.20;99.90
15617;DHT22;7908;51.688;7.130;2023-07-20T08:55:15;17.30;99.90
15617;DHT22;7908;51.688;7.130;2023-07-20T08:57:50;17.40;99.90
15617;DHT22;7908;51.688;7.130;2023-07-20T09:00:25;17.40;99.90
15617;DHT22;7908;51.688;7.130;2023-07-20T09:03:01;17.40;99.90
15617;DHT22;7908;51.688;7.130;2023-07-20T09:05:32;17.30;99.90
15617;DHT22;7908;51.688;7.130;2023-07-20T09:08:17;17.30;99.90
15617;DHT22;7908;51.688;7.130;2023-07-20T09:10:51;17.40;99.90
15617;DHT22;7908;51.688;7.130;2023-07-20T09:13:28;17.50;99.90
15617;DHT22;7908;51.688;7.130;2023-07-20T09:16:01;17.60;99.90
15617;DHT22;7908;51.688;7.130;2023-07-20T09:18:35;17.70;99.90
15617;DHT22;7908;51.688;7.130;2023-07-20T09:21:09;17.80;99.90
15617;DHT22;7908;51.688;7.130;2023-07-20T09:23:46;17.90;99.90
15617;DHT22;7908;51.688;7.130;2023-07-20T09:26:21;18.00;99.90
15617;DHT22;7908;51.688;7.130;2023-07-20T09:28:55;18.00;99.90
15617;DHT22;7908;51.688;7.130;2023-07-20T09:31:30;18.00;99.90
15617;DHT22;7908;51.688;7.130;2023-07-20T09:34:10;17.90;99.90
15617;DHT22;7908;51.688;7.130;2023-07-20T09:37:02;17.80;99.90
15617;DHT22;7908;51.688;7.130;2023-07-20T09:39:33;17.70;99.90
15617;DHT22;7908;51.688;7.130;2023-07-20T09:42:21;17.80;99.90
15617;DHT22;7908;51.688;7.130;2023-07-20T09:45:03;17.80;99.90
15617;DHT22;7908;51.688;7.130;2023-07-20T09:47:39;17.90;99.90
15617;DHT22;7908;51.688;7.130;2023-07-20T09:50:13;17.90;99.90
15617;DHT22;7908;51.688;7.130;2023-07-20T09:52:54;17.90;99.90
15617;DHT22;7908;51.688;7.130;2023-07-20T09:55:30;18.00;99.90
15617;DHT22;7908;51.688;7.130;2023-07-20T09:58:01;18.10;99.90
15617;DHT22;7908;51.688;7.130;2023-07-20T10:03:31;18.10;99.90
15617;DHT22;7908;51.688;7.130;2023-07-20T10:06:16;18.30;99.90
15617;DHT22;7908;51.688;7.130;2023-07-20T10:09:02;18.40;99.90
15617;DHT22;7908;51.688;7.130;2023-07-20T10:11:43;18.60;99.90
15617;DHT22;7908;51.688;7.130;2023-07-20T10:14:44;18.70;99.90
15617;DHT22;7908;51.688;7.130;2023-07-20T10:17:25;18.70;99.90
15617;DHT22;7908;51.688;7.130;2023-07-20T10:20:10;18.80;99.90
15617;DHT22;7908;51.688;7.130;2023-07-20T10:22:48;19.00;99.90
15617;DHT22;7908;51.688;7.130;2023-07-20T10:25:24;19.10;99.90
15617;DHT22;7908;51.688;7.130;2023-07-20T10:27:59;19.10;99.90
15617;DHT22;7908;51.688;7.130;2023-07-20T10:30:39;19.10;99.90
15617;DHT22;7908;51.688;7.130;2023-07-20T10:33:17;19.20;99.90
15617;DHT22;7908;51.688;7.130;2023-07-20T10:35:58;19.20;99.90
15617;DHT22;7908;51.688;7.130;2023-07-20T10:38:55;19.30;99.90
15617;DHT22;7908;51.688;7.130;2023-07-20T10:41:44;19.30;99.90
15617;DHT22;7908;51.688;7.130;2023-07-20T10:44:20;19.50;99.90
15617;DHT22;7908;51.688;7.130;2023-07-20T10:47:08;19.70;99.90
15617;DHT22;7908;51.688;7.130;2023-07-20T10:50:03;19.80;99.90
15617;DHT22;7908;51.688;7.130;2023-07-20T10:53:14;19.70;99.90
15617;DHT22;7908;51.688;7.130;2023-07-20T10:56:06;19.50;99.90
15617;DHT22;7908;51.688;7.130;2023-07-20T10:58:41;19.30;99.90
15617;DHT22;7908;51.688;7.130;2023-07-20T11:01:16;19.40;99.90
15617;DHT22;7908;51.688;7.130;2023-07-20T11:03:50;19.50;99.90
15617;DHT22;7908;51.688;7.130;2023-07-20T11:06:33;19.60;99.90
15617;DHT22;7908;51.688;7.130;2023-07-20T11:09:10;19.60;99.90
15617;DHT22;7908;51.688;7.130;2023-07-20T11:11:47;19.80;99.90
15617;DHT22;7908;51.688;7.130;2023-07-20T11:14:29;19.90;99.90
15617;DHT22;7908;51.688;7.130;2023-07-20T11:17:17;19.90;99.90
15617;DHT22;7908;51.688;7.130;2023-07-20T11:20:01;19.90;99.90
15617;DHT22;7908;51.688;7.130;2023-07-20T11:22:43;20.00;99.90
15617;DHT22;7908;51.688;7.130;2023-07-20T11:25:19;20.10;99.90
15617;DHT22;7908;51.688;7.130;2023-07-20T11:28:08;20.10;99.90
15617;DHT22;7908;51.688;7.130;2023-07-20T11:30:41;20.20;99.90
15617;DHT22;7908;51.688;7.130;2023-07-20T11:33:19;20.30;99.90
15617;DHT22;7908;51.688;7.130;2023-07-20T11:35:54;20.40;99.90
15617;DHT22;7908;51.688;7.130;2023-07-20T11:38:30;20.50;99.90
15617;DHT22;7908;51.688;7.130;2023-07-20T11:41:09;20.50;99.90
15617;DHT22;7908;51.688;7.130;2023-07-20T11:43:46;20.60;99.90
15617;DHT22;7908;51.688;7.130;2023-07-20T11:46:20;20.60;99.90
15617;DHT22;7908;51.688;7.130;2023-07-20T11:48:58;20.60;99.90
15617;DHT22;7908;51.688;7.130;2023-07-20T11:51:31;20.40;99.90
15617;DHT22;7908;51.688;7.130;2023-07-20T11:54:06;20.40;99.90
15617;DHT22;7908;51.688;7.130;2023-07-20T11:56:42;20.40;99.90
15617;DHT22;7908;51.688;7.130;2023-07-20T11:59:23;20.40;99.90
15617;DHT22;7908;51.688;7.130;2023-07-20T12:01:58;20.40;99.90
15617;DHT22;7908;51.688;7.130;2023-07-20T12:04:32;20.50;99.90
15617;DHT22;7908;51.688;7.130;2023-07-20T12:07:08;20.50;99.90
15617;DHT22;7908;51.688;7.130;2023-07-20T12:09:37;20.50;99.90
15617;DHT22;7908;51.688;7.130;2023-07-20T12:12:19;20.50;99.90
15617;DHT22;7908;51.688;7.130;2023-07-20T12:14:50;20.60;99.90
15617;DHT22;7908;51.688;7.130;2023-07-20T12:17:20;20.60;99.90
15617;DHT22;7908;51.688;7.130;2023-07-20T12:20:00;20.70;99.90
15617;DHT22;7908;51.688;7.130;2023-07-20T12:22:45;20.90;99.90
15617;DHT22;7908;51.688;7.130;2023-07-20T12:25:18;20.90;99.90
15617;DHT22;7908;51.688;7.130;2023-07-20T12:27:49;21.00;99.90
15617;DHT22;7908;51.688;7.130;2023-07-20T12:30:26;21.00;99.90
15617;DHT22;7908;51.688;7.130;2023-07-20T12:32:59;21.00;99.90
15617;DHT22;7908;51.688;7.130;2023-07-20T12:35:33;21.10;99.90
15617;DHT22;7908;51.688;7.130;2023-07-20T12:38:14;21.10;99.90
15617;DHT22;7908;51.688;7.130;2023-07-20T12:40:43;21.10;99.90
15617;DHT22;7908;51.688;7.130;2023-07-20T12:43:19;21.20;99.90
15617;DHT22;7908;51.688;7.130;2023-07-20T12:46:00;21.20;99.90
15617;DHT22;7908;51.688;7.130;2023-07-20T12:48:34;21.20;99.90
15617;DHT22;7908;51.688;7.130;2023-07-20T12:51:13;21.30;99.90
15617;DHT22;7908;51.688;7.130;2023-07-20T12:53:51;21.30;99.90
15617;DHT22;7908;51.688;7.130;2023-07-20T12:56:24;21.40;99.90
15617;DHT22;7908;51.688;7.130;2023-07-20T12:59:04;21.30;99.90
15617;DHT22;7908;51.688;7.130;2023-07-20T13:01:49;21.20;99.90
15617;DHT22;7908;51.688;7.130;2023-07-20T13:04:20;21.20;99.90
15617;DHT22;7908;51.688;7.130;2023-07-20T13:06:53;21.40;99.90
15617;DHT22;7908;51.688;7.130;2023-07-20T13:09:23;21.30;99.90
15617;DHT22;7908;51.688;7.130;2023-07-20T13:11:58;21.30;99.90
15617;DHT22;7908;51.688;7.130;2023-07-20T13:14:38;21.50;99.90
15617;DHT22;7908;51.688;7.130;2023-07-20T13:17:29;21.60;99.90
